createdAt,value
2023-04-18T00:00:41.739Z,502.00
2023-04-18T00:01:41.835Z,506.00
2023-04-18T00:02:41.982Z,504.00
2023-04-18T00:03:42.108Z,508.00
2023-04-18T00:04:42.026Z,504.00
2023-04-18T00:05:42.055Z,508.00
2023-04-18T00:06:42.124Z,507.00
2023-04-18T00:07:42.184Z,508.00
2023-04-18T00:08:42.248Z,507.00
2023-04-18T00:09:42.331Z,505.00
2023-04-18T00:10:42.448Z,510.00
2023-04-18T00:11:42.444Z,507.00
2023-04-18T00:12:42.497Z,508.00
2023-04-18T00:13:42.559Z,505.00
2023-04-18T00:14:42.627Z,506.00
2023-04-18T00:15:42.689Z,506.00
2023-04-18T00:16:42.769Z,503.00
2023-04-18T00:17:42.848Z,509.00
2023-04-18T00:18:42.876Z,503.00
2023-04-18T00:19:42.947Z,508.00
2023-04-18T00:20:43.011Z,508.00
2023-04-18T00:21:43.070Z,509.00
2023-04-18T00:22:43.137Z,511.00
2023-04-18T00:23:43.247Z,506.00
2023-04-18T00:24:43.275Z,508.00
2023-04-18T00:25:43.339Z,512.00
2023-04-18T00:26:43.402Z,509.00
2023-04-18T00:27:43.464Z,502.00
2023-04-18T00:28:43.531Z,501.00
2023-04-18T00:29:43.598Z,508.00
2023-04-18T00:30:43.701Z,509.00
2023-04-18T00:31:43.727Z,506.00
2023-04-18T00:32:43.874Z,508.00
2023-04-18T00:33:43.858Z,509.00
2023-04-18T00:34:43.934Z,513.00
2023-04-18T00:35:44.004Z,510.00
2023-04-18T00:36:44.068Z,511.00
2023-04-18T00:37:44.143Z,507.00
2023-04-18T00:38:44.211Z,509.00
2023-04-18T00:39:45.039Z,507.00
2023-04-18T00:40:44.389Z,507.00
2023-04-18T00:41:44.416Z,504.00
2023-04-18T00:42:44.481Z,508.00
2023-04-18T00:43:44.563Z,508.00
2023-04-18T00:44:44.617Z,510.00
2023-04-18T00:45:44.729Z,506.00
2023-04-18T00:46:44.749Z,505.00
2023-04-18T00:47:44.880Z,507.00
2023-04-18T00:48:44.875Z,500.00
2023-04-18T00:49:44.938Z,508.00
2023-04-18T00:50:45.003Z,508.00
2023-04-18T00:51:45.079Z,508.00
2023-04-18T00:52:45.148Z,506.00
2023-04-18T00:53:45.210Z,507.00
2023-04-18T00:54:45.269Z,506.00
2023-04-18T00:55:45.350Z,508.00
2023-04-18T00:56:45.407Z,506.00
2023-04-18T00:57:45.480Z,509.00
2023-04-18T00:58:45.556Z,502.00
2023-04-18T00:59:45.608Z,504.00
2023-04-18T01:00:45.691Z,509.00
2023-04-18T01:01:45.780Z,505.00
2023-04-18T01:02:45.885Z,509.00
2023-04-18T01:03:45.988Z,510.00
2023-04-18T01:04:45.953Z,507.00
2023-04-18T01:05:46.021Z,509.00
2023-04-18T01:06:46.098Z,515.00
2023-04-18T01:07:46.161Z,513.00
2023-04-18T01:08:46.229Z,509.00
2023-04-18T01:09:46.301Z,505.00
2023-04-18T01:10:46.370Z,507.00
2023-04-18T01:11:46.431Z,509.00
2023-04-18T01:12:46.545Z,511.00
2023-04-18T01:13:46.567Z,509.00
2023-04-18T01:14:46.645Z,508.00
2023-04-18T01:15:46.753Z,510.00
2023-04-18T01:16:46.774Z,507.00
2023-04-18T01:17:46.895Z,510.00
2023-04-18T01:18:46.909Z,508.00
2023-04-18T01:19:46.973Z,507.00
2023-04-18T01:20:47.045Z,509.00
2023-04-18T01:21:47.109Z,511.00
2023-04-18T01:22:47.175Z,505.00
2023-04-18T01:23:47.244Z,505.00
2023-04-18T01:24:47.324Z,505.00
2023-04-18T01:25:47.418Z,506.00
2023-04-18T01:26:47.463Z,507.00
2023-04-18T01:27:47.512Z,509.00
2023-04-18T01:28:47.587Z,501.00
2023-04-18T01:29:47.644Z,509.00
2023-04-18T01:30:47.713Z,506.00
2023-04-18T01:31:47.800Z,508.00
2023-04-18T01:32:47.918Z,508.00
2023-04-18T01:33:47.921Z,504.00
2023-04-18T01:34:47.993Z,508.00
2023-04-18T01:35:48.078Z,510.00
2023-04-18T01:36:48.135Z,509.00
2023-04-18T01:37:48.207Z,504.00
2023-04-18T01:38:48.274Z,509.00
2023-04-18T01:39:48.352Z,511.00
2023-04-18T01:40:48.421Z,506.00
2023-04-18T01:41:48.487Z,513.00
2023-04-18T01:42:48.563Z,507.00
2023-04-18T01:43:48.627Z,507.00
2023-04-18T01:44:48.687Z,507.00
2023-04-18T01:45:48.753Z,507.00
2023-04-18T01:46:48.876Z,509.00
2023-04-18T01:47:48.976Z,510.00
2023-04-18T01:48:48.977Z,508.00
2023-04-18T01:49:49.047Z,505.00
2023-04-18T01:50:49.102Z,507.00
2023-04-18T01:51:49.176Z,503.00
2023-04-18T01:52:49.249Z,508.00
2023-04-18T01:53:49.319Z,504.00
2023-04-18T01:54:49.390Z,508.00
2023-04-18T01:55:49.475Z,507.00
2023-04-18T01:56:49.532Z,512.00
2023-04-18T01:57:49.600Z,505.00
2023-04-18T01:58:49.666Z,506.00
2023-04-18T01:59:49.742Z,512.00
2023-04-18T02:00:50.588Z,508.00
2023-04-18T02:01:49.902Z,508.00
2023-04-18T02:02:49.998Z,508.00
2023-04-18T02:03:50.187Z,507.00
2023-04-18T02:04:50.076Z,506.00
2023-04-18T02:05:50.144Z,503.00
2023-04-18T02:06:50.220Z,508.00
2023-04-18T02:07:50.353Z,505.00
2023-04-18T02:08:50.358Z,507.00
2023-04-18T02:09:50.430Z,507.00
2023-04-18T02:10:50.500Z,508.00
2023-04-18T02:11:50.571Z,506.00
2023-04-18T02:12:50.644Z,507.00
2023-04-18T02:13:50.718Z,509.00
2023-04-18T02:14:50.792Z,506.00
2023-04-18T02:15:50.872Z,512.00
2023-04-18T02:16:51.073Z,509.00
2023-04-18T02:17:51.021Z,506.00
2023-04-18T02:18:51.077Z,508.00
2023-04-18T02:19:51.149Z,510.00
2023-04-18T02:20:51.232Z,508.00
2023-04-18T02:21:51.302Z,507.00
2023-04-18T02:22:51.373Z,504.00
2023-04-18T02:23:51.436Z,505.00
2023-04-18T02:24:51.515Z,507.00
2023-04-18T02:25:51.586Z,507.00
2023-04-18T02:26:51.651Z,506.00
2023-04-18T02:27:51.719Z,506.00
2023-04-18T02:28:51.812Z,508.00
2023-04-18T02:29:51.871Z,508.00
2023-04-18T02:30:51.957Z,509.00
2023-04-18T02:31:52.025Z,511.00
2023-04-18T02:32:52.158Z,510.00
2023-04-18T02:33:52.151Z,507.00
2023-04-18T02:34:52.223Z,505.00
2023-04-18T02:35:52.303Z,502.00
2023-04-18T02:36:52.358Z,506.00
2023-04-18T02:37:52.438Z,502.00
2023-04-18T02:38:52.512Z,508.00
2023-04-18T02:39:52.587Z,506.00
2023-04-18T02:40:52.681Z,503.00
2023-04-18T02:41:52.741Z,506.00
2023-04-18T02:42:52.814Z,503.00
2023-04-18T02:43:52.885Z,508.00
2023-04-18T02:44:52.959Z,506.00
2023-04-18T02:45:53.072Z,508.00
2023-04-18T02:46:53.098Z,505.00
2023-04-18T02:47:56.044Z,505.00
2023-04-18T02:48:53.166Z,513.00
2023-04-18T02:49:53.182Z,508.00
2023-04-18T02:50:53.195Z,506.00
2023-04-18T02:51:53.186Z,508.00
2023-04-18T02:52:53.208Z,512.00
2023-04-18T02:53:53.221Z,512.00
2023-04-18T02:54:53.232Z,506.00
2023-04-18T02:55:53.251Z,500.00
2023-04-18T02:56:53.259Z,503.00
2023-04-18T02:57:53.269Z,505.00
2023-04-18T02:58:53.296Z,511.00
2023-04-18T02:59:53.284Z,506.00
2023-04-18T03:00:53.305Z,505.00
2023-04-18T03:01:53.337Z,509.00
2023-04-18T03:02:53.548Z,510.00
2023-04-18T03:03:53.320Z,506.00
2023-04-18T03:04:53.345Z,506.00
2023-04-18T03:05:53.346Z,501.00
2023-04-18T03:06:53.361Z,506.00
2023-04-18T03:07:53.380Z,503.00
2023-04-18T03:08:53.407Z,506.00
2023-04-18T03:09:53.428Z,505.00
2023-04-18T03:10:55.111Z,508.00
2023-04-18T03:11:53.439Z,511.00
2023-04-18T03:12:53.432Z,511.00
2023-04-18T03:13:53.435Z,511.00
2023-04-18T03:14:53.447Z,504.00
2023-04-18T03:15:53.484Z,508.00
2023-04-18T03:16:55.407Z,509.00
2023-04-18T03:17:53.496Z,509.00
2023-04-18T03:18:53.479Z,509.00
2023-04-18T03:19:53.499Z,504.00
2023-04-18T03:20:53.510Z,508.00
2023-04-18T03:21:53.517Z,509.00
2023-04-18T03:22:53.544Z,507.00
2023-04-18T03:23:53.614Z,504.00
2023-04-18T03:24:53.685Z,508.00
2023-04-18T03:25:53.747Z,500.00
2023-04-18T03:26:53.804Z,510.00
2023-04-18T03:27:53.884Z,503.00
2023-04-18T03:28:53.960Z,505.00
2023-04-18T03:29:54.023Z,505.00
2023-04-18T03:30:54.137Z,504.00
2023-04-18T03:31:54.161Z,505.00
2023-04-18T03:32:54.250Z,509.00
2023-04-18T03:33:54.284Z,509.00
2023-04-18T03:34:54.345Z,502.00
2023-04-18T03:35:54.422Z,506.00
2023-04-18T03:36:54.484Z,505.00
2023-04-18T03:37:54.556Z,510.00
2023-04-18T03:38:54.631Z,505.00
2023-04-18T03:39:54.707Z,507.00
2023-04-18T03:40:54.759Z,509.00
2023-04-18T03:41:54.842Z,507.00
2023-04-18T03:42:54.903Z,504.00
2023-04-18T03:43:54.970Z,509.00
2023-04-18T03:44:55.042Z,511.00
2023-04-18T03:45:55.132Z,507.00
2023-04-18T03:46:55.175Z,504.00
2023-04-18T03:47:55.276Z,505.00
2023-04-18T03:48:55.315Z,511.00
2023-04-18T03:49:55.382Z,509.00
2023-04-18T03:50:55.444Z,507.00
2023-04-18T03:51:55.518Z,506.00
2023-04-18T03:52:55.596Z,509.00
2023-04-18T03:53:55.652Z,510.00
2023-04-18T03:54:55.731Z,504.00
2023-04-18T03:55:55.787Z,510.00
2023-04-18T03:56:55.858Z,505.00
2023-04-18T03:57:55.922Z,501.00
2023-04-18T03:58:56.003Z,509.00
2023-04-18T03:59:56.073Z,507.00
2023-04-18T04:00:56.135Z,507.00
2023-04-18T04:01:56.290Z,505.00
2023-04-18T04:02:56.554Z,505.00
2023-04-18T04:03:56.403Z,506.00
2023-04-18T04:04:56.451Z,505.00
2023-04-18T04:05:56.491Z,502.00
2023-04-18T04:06:56.571Z,505.00
2023-04-18T04:07:56.611Z,509.00
2023-04-18T04:08:56.692Z,505.00
2023-04-18T04:09:56.766Z,505.00
2023-04-18T04:10:56.833Z,506.00
2023-04-18T04:11:56.907Z,510.00
2023-04-18T04:12:56.976Z,508.00
2023-04-18T04:13:57.041Z,513.00
2023-04-18T04:14:57.107Z,509.00
2023-04-18T04:15:57.244Z,506.00
2023-04-18T04:16:57.238Z,506.00
2023-04-18T04:17:57.361Z,506.00
2023-04-18T04:18:57.384Z,509.00
2023-04-18T04:19:57.438Z,511.00
2023-04-18T04:20:57.504Z,504.00
2023-04-18T04:21:57.594Z,504.00
2023-04-18T04:22:57.659Z,508.00
2023-04-18T04:23:57.719Z,500.00
2023-04-18T04:24:57.846Z,508.00
2023-04-18T04:25:57.864Z,507.00
2023-04-18T04:26:57.925Z,506.00
2023-04-18T04:27:57.998Z,507.00
2023-04-18T04:28:58.060Z,507.00
2023-04-18T04:29:58.139Z,504.00
2023-04-18T04:30:58.219Z,505.00
2023-04-18T04:31:58.298Z,507.00
2023-04-18T04:32:58.420Z,505.00
2023-04-18T04:33:58.418Z,511.00
2023-04-18T04:34:58.486Z,508.00
2023-04-18T04:35:58.554Z,503.00
2023-04-18T04:36:58.627Z,507.00
2023-04-18T04:37:58.693Z,505.00
2023-04-18T04:38:58.765Z,507.00
2023-04-18T04:39:58.833Z,507.00
2023-04-18T04:40:58.906Z,510.00
2023-04-18T04:41:58.977Z,504.00
2023-04-18T04:42:59.038Z,501.00
2023-04-18T04:43:59.108Z,504.00
2023-04-18T04:44:59.229Z,508.00
2023-04-18T04:45:59.252Z,510.00
2023-04-18T04:46:59.319Z,503.00
2023-04-18T04:47:59.452Z,504.00
2023-04-18T04:48:59.442Z,511.00
2023-04-18T04:49:59.513Z,505.00
2023-04-18T04:50:59.598Z,507.00
2023-04-18T04:52:01.403Z,507.00
2023-04-18T04:52:59.727Z,510.00
2023-04-18T04:53:59.793Z,508.00
2023-04-18T04:54:59.861Z,507.00
2023-04-18T04:55:59.920Z,511.00
2023-04-18T04:57:00.021Z,506.00
2023-04-18T04:58:00.053Z,508.00
2023-04-18T04:59:00.117Z,512.00
2023-04-18T05:00:00.208Z,505.00
2023-04-18T05:01:00.289Z,507.00
2023-04-18T05:02:00.353Z,508.00
2023-04-18T05:03:00.490Z,512.00
2023-04-18T05:04:00.488Z,511.00
2023-04-18T05:05:00.508Z,507.00
2023-04-18T05:06:00.558Z,504.00
2023-04-18T05:07:00.638Z,508.00
2023-04-18T05:08:00.715Z,509.00
2023-04-18T05:09:00.777Z,509.00
2023-04-18T05:10:00.860Z,506.00
2023-04-18T05:11:00.912Z,505.00
2023-04-18T05:12:00.969Z,507.00
2023-04-18T05:13:01.031Z,504.00
2023-04-18T05:14:01.094Z,510.00
2023-04-18T05:15:01.167Z,508.00
2023-04-18T05:16:01.287Z,508.00
2023-04-18T05:17:01.420Z,505.00
2023-04-18T05:18:01.439Z,507.00
2023-04-18T05:19:01.468Z,508.00
2023-04-18T05:20:01.534Z,505.00
2023-04-18T05:21:01.627Z,503.00
2023-04-18T05:22:01.639Z,509.00
2023-04-18T05:23:01.730Z,510.00
2023-04-18T05:24:01.776Z,513.00
2023-04-18T05:25:01.922Z,521.00
2023-04-18T05:26:01.911Z,528.00
2023-04-18T05:27:02.004Z,536.00
2023-04-18T05:28:02.047Z,552.00
2023-04-18T05:29:02.183Z,570.00
2023-04-18T05:30:02.172Z,580.00
2023-04-18T05:31:02.291Z,590.00
2023-04-18T05:32:02.281Z,613.00
2023-04-18T05:33:02.415Z,636.00
2023-04-18T05:34:02.397Z,653.00
2023-04-18T05:35:02.450Z,668.00
2023-04-18T05:36:02.503Z,699.00
2023-04-18T05:37:02.543Z,742.00
2023-04-18T05:38:02.584Z,801.00
2023-04-18T05:39:02.626Z,838.00
2023-04-18T05:40:02.844Z,881.00
2023-04-18T05:41:02.717Z,934.00
2023-04-18T05:42:03.640Z,981.00
2023-04-18T05:43:02.768Z,1011.00
2023-04-18T05:44:05.697Z,1052.00
2023-04-18T05:45:02.823Z,1079.00
2023-04-18T05:46:02.859Z,1108.00
2023-04-18T05:47:02.825Z,1142.00
2023-04-18T05:48:02.892Z,1167.00
2023-04-18T05:49:02.845Z,1193.00
2023-04-18T05:50:02.870Z,1213.00
2023-04-18T05:51:02.868Z,1252.00
2023-04-18T05:52:02.896Z,1263.00
2023-04-18T05:53:02.887Z,1324.00
2023-04-18T05:54:02.892Z,1317.00
2023-04-18T05:55:02.927Z,1353.00
2023-04-18T05:56:02.918Z,1342.00
2023-04-18T05:57:04.505Z,948.00
2023-04-18T05:58:02.932Z,697.00
2023-04-18T05:59:02.940Z,766.00
2023-04-18T06:00:02.957Z,982.00
2023-04-18T06:01:02.977Z,1101.00
2023-04-18T06:02:03.024Z,1205.00
2023-04-18T06:03:03.136Z,1222.00
2023-04-18T06:04:03.238Z,1258.00
2023-04-18T06:05:03.308Z,1286.00
2023-04-18T06:06:03.109Z,1301.00
2023-04-18T06:07:03.020Z,1339.00
2023-04-18T06:08:03.032Z,1351.00
2023-04-18T06:09:03.040Z,1370.00
2023-04-18T06:10:03.056Z,1383.00
2023-04-18T06:11:03.042Z,1415.00
2023-04-18T06:12:03.047Z,1442.00
2023-04-18T06:13:03.046Z,1459.00
2023-04-18T06:14:03.059Z,1491.00
2023-04-18T06:15:03.057Z,1512.00
2023-04-18T06:16:03.088Z,1548.00
2023-04-18T06:17:03.062Z,1553.00
2023-04-18T06:18:03.151Z,1586.00
2023-04-18T06:19:03.050Z,1633.00
2023-04-18T06:20:03.036Z,1647.00
2023-04-18T06:21:03.048Z,1662.00
2023-04-18T06:22:03.034Z,1683.00
2023-04-18T06:23:03.028Z,1682.00
2023-04-18T06:24:03.053Z,1744.00
2023-04-18T06:25:03.040Z,1746.00
2023-04-18T06:26:03.050Z,1763.00
2023-04-18T06:27:03.663Z,1717.00
2023-04-18T06:28:03.078Z,1146.00
2023-04-18T06:29:03.088Z,715.00
2023-04-18T06:30:03.128Z,604.00
2023-04-18T06:31:03.162Z,597.00
2023-04-18T06:32:03.264Z,593.00
2023-04-18T06:33:03.885Z,598.00
2023-04-18T06:34:03.274Z,604.00
2023-04-18T06:35:03.324Z,603.00
2023-04-18T06:36:03.343Z,614.00
2023-04-18T06:37:03.430Z,631.00
2023-04-18T06:38:03.505Z,652.00
2023-04-18T06:39:03.601Z,654.00
2023-04-18T06:40:03.664Z,662.00
2023-04-18T06:41:03.736Z,721.00
2023-04-18T06:42:03.790Z,726.00
2023-04-18T06:43:04.586Z,738.00
2023-04-18T06:44:04.616Z,743.00
2023-04-18T06:45:03.955Z,777.00
2023-04-18T06:46:04.029Z,812.00
2023-04-18T06:47:04.027Z,833.00
2023-04-18T06:48:04.202Z,875.00
2023-04-18T06:49:04.089Z,908.00
2023-04-18T06:50:04.140Z,938.00
2023-04-18T06:51:04.137Z,951.00
2023-04-18T06:52:04.167Z,1005.00
2023-04-18T06:53:04.181Z,1037.00
2023-04-18T06:54:04.196Z,1070.00
2023-04-18T06:55:04.220Z,1103.00
2023-04-18T06:56:04.235Z,1130.00
2023-04-18T06:57:04.236Z,1155.00
2023-04-18T06:58:04.238Z,1189.00
2023-04-18T06:59:04.267Z,1223.00
2023-04-18T07:00:04.250Z,1254.00
2023-04-18T07:01:04.293Z,1291.00
2023-04-18T07:02:04.346Z,1314.00
2023-04-18T07:03:04.464Z,1348.00
2023-04-18T07:04:04.357Z,1366.00
2023-04-18T07:05:04.704Z,1407.00
2023-04-18T07:06:04.343Z,1424.00
2023-04-18T07:07:04.346Z,1456.00
2023-04-18T07:08:04.362Z,1479.00
2023-04-18T07:09:04.412Z,1505.00
2023-04-18T07:10:04.477Z,1513.00
2023-04-18T07:11:04.513Z,1553.00
2023-04-18T07:12:04.564Z,1568.00
2023-04-18T07:13:04.618Z,1584.00
2023-04-18T07:14:04.698Z,1621.00
2023-04-18T07:15:04.742Z,1631.00
2023-04-18T07:16:04.793Z,1674.00
2023-04-18T07:17:04.903Z,1697.00
2023-04-18T07:18:04.913Z,1709.00
2023-04-18T07:19:04.929Z,1723.00
2023-04-18T07:20:04.964Z,1736.00
2023-04-18T07:21:05.015Z,1726.00
2023-04-18T07:22:05.059Z,1723.00
2023-04-18T07:23:05.686Z,1708.00
2023-04-18T07:24:05.680Z,1712.00
2023-04-18T07:25:05.248Z,1711.00
2023-04-18T07:26:05.263Z,1703.00
2023-04-18T07:27:05.316Z,1710.00
2023-04-18T07:28:06.103Z,1708.00
2023-04-18T07:29:06.110Z,1695.00
2023-04-18T07:30:05.521Z,1703.00
2023-04-18T07:31:05.559Z,1689.00
2023-04-18T07:32:06.903Z,1666.00
2023-04-18T07:33:05.904Z,1665.00
2023-04-18T07:34:06.181Z,1658.00
2023-04-18T07:35:05.927Z,1645.00
2023-04-18T07:36:05.988Z,1636.00
2023-04-18T07:37:06.138Z,1626.00
2023-04-18T07:38:06.085Z,1631.00
2023-04-18T07:39:06.140Z,1616.00
2023-04-18T07:40:06.186Z,1601.00
2023-04-18T07:41:06.242Z,1594.00
2023-04-18T07:42:06.333Z,1590.00
2023-04-18T07:43:06.322Z,1585.00
2023-04-18T07:44:06.380Z,1579.00
2023-04-18T07:45:06.444Z,1572.00
2023-04-18T07:46:06.529Z,1570.00
2023-04-18T07:47:06.534Z,1563.00
2023-04-18T07:48:06.618Z,1561.00
2023-04-18T07:49:06.672Z,1549.00
2023-04-18T07:50:06.709Z,1541.00
2023-04-18T07:51:06.771Z,1536.00
2023-04-18T07:52:06.882Z,1557.00
2023-04-18T07:53:06.921Z,1538.00
2023-04-18T07:54:06.933Z,1541.00
2023-04-18T07:55:06.978Z,1543.00
2023-04-18T07:56:07.041Z,1546.00
2023-04-18T07:57:07.096Z,1538.00
2023-04-18T07:58:07.149Z,1552.00
2023-04-18T07:59:07.232Z,1550.00
2023-04-18T08:00:07.323Z,1543.00
2023-04-18T08:01:07.326Z,1542.00
2023-04-18T08:02:07.420Z,1547.00
2023-04-18T08:03:07.685Z,1542.00
2023-04-18T08:04:07.741Z,1535.00
2023-04-18T08:05:07.698Z,1539.00
2023-04-18T08:06:07.624Z,1539.00
2023-04-18T08:07:07.656Z,1541.00
2023-04-18T08:08:07.684Z,1557.00
2023-04-18T08:09:07.751Z,1542.00
2023-04-18T08:10:07.796Z,1539.00
2023-04-18T08:11:07.855Z,1512.00
2023-04-18T08:12:07.900Z,1516.00
2023-04-18T08:13:07.947Z,1524.00
2023-04-18T08:14:08.000Z,1354.00
2023-04-18T08:15:08.005Z,916.00
2023-04-18T08:16:08.068Z,628.00
2023-04-18T08:17:08.030Z,524.00
2023-04-18T08:18:08.069Z,472.00
2023-04-18T08:19:08.086Z,426.00
2023-04-18T08:20:08.206Z,440.00
2023-04-18T08:21:08.176Z,514.00
2023-04-18T08:22:08.205Z,515.00
2023-04-18T08:23:10.530Z,522.00
2023-04-18T08:24:08.185Z,516.00
2023-04-18T08:25:08.196Z,515.00
2023-04-18T08:26:08.191Z,514.00
2023-04-18T08:27:08.188Z,455.00
2023-04-18T08:28:09.193Z,479.00
2023-04-18T08:29:08.717Z,520.00
2023-04-18T08:30:08.175Z,560.00
2023-04-18T08:31:08.219Z,619.00
2023-04-18T08:32:09.264Z,729.00
2023-04-18T08:33:08.230Z,783.00
2023-04-18T08:34:08.173Z,817.00
2023-04-18T08:35:08.170Z,841.00
2023-04-18T08:36:08.170Z,868.00
2023-04-18T08:37:08.164Z,905.00
2023-04-18T08:38:08.148Z,949.00
2023-04-18T08:39:08.144Z,992.00
2023-04-18T08:40:08.145Z,1036.00
2023-04-18T08:41:08.280Z,1072.00
2023-04-18T08:42:08.126Z,1099.00
2023-04-18T08:43:08.129Z,1144.00
2023-04-18T08:44:08.131Z,1159.00
2023-04-18T08:45:08.121Z,1209.00
2023-04-18T08:46:08.148Z,1217.00
2023-04-18T08:47:08.097Z,1240.00
2023-04-18T08:48:08.168Z,1269.00
2023-04-18T08:49:09.676Z,1281.00
2023-04-18T08:50:08.146Z,1307.00
2023-04-18T08:51:08.139Z,1328.00
2023-04-18T08:52:08.113Z,1351.00
2023-04-18T08:53:08.097Z,1365.00
2023-04-18T08:54:08.082Z,1381.00
2023-04-18T08:55:08.101Z,1400.00
2023-04-18T08:56:08.071Z,1421.00
2023-04-18T08:57:08.053Z,1433.00
2023-04-18T08:58:08.105Z,1477.00
2023-04-18T08:59:08.025Z,1500.00
2023-04-18T09:00:08.044Z,1530.00
2023-04-18T09:01:08.102Z,1560.00
2023-04-18T09:02:08.056Z,1553.00
2023-04-18T09:03:08.098Z,1574.00
2023-04-18T09:04:08.007Z,1580.00
2023-04-18T09:05:07.968Z,1570.00
2023-04-18T09:06:07.984Z,1581.00
2023-04-18T09:07:07.941Z,1584.00
2023-04-18T09:08:07.914Z,1607.00
2023-04-18T09:09:07.911Z,1611.00
2023-04-18T09:10:07.906Z,1641.00
2023-04-18T09:11:07.878Z,1634.00
2023-04-18T09:12:07.872Z,1644.00
2023-04-18T09:13:07.885Z,1642.00
2023-04-18T09:14:07.861Z,1650.00
2023-04-18T09:15:07.834Z,1646.00
2023-04-18T09:16:07.841Z,1662.00
2023-04-18T09:17:07.900Z,1661.00
2023-04-18T09:18:07.833Z,1607.00
2023-04-18T09:19:07.788Z,1605.00
2023-04-18T09:20:07.780Z,1631.00
2023-04-18T09:21:07.777Z,1623.00
2023-04-18T09:22:07.758Z,1637.00
2023-04-18T09:23:07.752Z,1600.00
2023-04-18T09:24:07.740Z,1572.00
2023-04-18T09:25:08.652Z,1550.00
2023-04-18T09:26:07.709Z,1496.00
2023-04-18T09:27:07.687Z,1466.00
2023-04-18T09:28:07.688Z,1462.00
2023-04-18T09:29:07.668Z,1435.00
2023-04-18T09:30:07.690Z,1395.00
2023-04-18T09:31:07.678Z,1379.00
2023-04-18T09:32:07.638Z,1393.00
2023-04-18T09:33:07.756Z,1360.00
2023-04-18T09:34:07.628Z,1347.00
2023-04-18T09:35:07.640Z,1331.00
2023-04-18T09:36:07.609Z,1320.00
2023-04-18T09:37:07.664Z,1286.00
2023-04-18T09:38:07.618Z,1276.00
2023-04-18T09:39:07.677Z,1263.00
2023-04-18T09:40:07.724Z,1278.00
2023-04-18T09:41:07.803Z,1262.00
2023-04-18T09:42:07.851Z,1228.00
2023-04-18T09:43:07.883Z,1196.00
2023-04-18T09:44:07.937Z,1181.00
2023-04-18T09:45:08.082Z,1189.00
2023-04-18T09:46:08.082Z,1167.00
2023-04-18T09:47:08.098Z,1176.00
2023-04-18T09:48:08.199Z,1149.00
2023-04-18T09:49:10.432Z,1122.00
2023-04-18T09:50:08.260Z,1127.00
2023-04-18T09:51:08.183Z,1110.00
2023-04-18T09:52:08.166Z,1112.00
2023-04-18T09:53:08.139Z,1109.00
2023-04-18T09:54:08.126Z,1081.00
2023-04-18T09:55:08.120Z,1068.00
2023-04-18T09:56:08.109Z,1064.00
2023-04-18T09:57:08.106Z,1049.00
2023-04-18T09:58:08.766Z,1024.00
2023-04-18T09:59:08.095Z,1015.00
2023-04-18T10:00:08.076Z,1012.00
2023-04-18T10:01:08.505Z,1026.00
2023-04-18T10:02:08.365Z,987.00
2023-04-18T10:03:08.244Z,960.00
2023-04-18T10:04:08.164Z,963.00
2023-04-18T10:05:08.138Z,931.00
2023-04-18T10:06:08.082Z,846.00
2023-04-18T10:07:08.034Z,812.00
2023-04-18T10:08:08.028Z,806.00
2023-04-18T10:09:08.016Z,766.00
2023-04-18T10:10:08.029Z,772.00
2023-04-18T10:11:08.007Z,786.00
2023-04-18T10:12:08.008Z,782.00
2023-04-18T10:13:08.044Z,793.00
2023-04-18T10:14:08.023Z,767.00
2023-04-18T10:15:09.087Z,728.00
2023-04-18T10:16:08.032Z,604.00
2023-04-18T10:17:07.996Z,460.00
2023-04-18T10:18:08.007Z,400.00
2023-04-18T10:19:07.993Z,400.00
2023-04-18T10:20:08.006Z,438.00
2023-04-18T10:21:07.988Z,506.00
2023-04-18T10:22:09.677Z,528.00
2023-04-18T10:23:08.002Z,578.00
2023-04-18T10:24:07.997Z,630.00
2023-04-18T10:25:08.000Z,634.00
2023-04-18T10:26:08.019Z,652.00
2023-04-18T10:27:08.069Z,696.00
2023-04-18T10:28:08.011Z,755.00
2023-04-18T10:29:08.011Z,803.00
2023-04-18T10:30:09.086Z,804.00
2023-04-18T10:31:08.035Z,812.00
2023-04-18T10:32:08.020Z,819.00
2023-04-18T10:33:18.265Z,808.00
2023-04-18T10:34:09.003Z,810.00
2023-04-18T10:35:08.025Z,814.00
2023-04-18T10:36:08.011Z,829.00
2023-04-18T10:37:07.991Z,835.00
2023-04-18T10:38:07.983Z,883.00
2023-04-18T10:39:07.985Z,859.00
2023-04-18T10:40:08.033Z,879.00
2023-04-18T10:41:07.984Z,898.00
2023-04-18T10:42:07.976Z,897.00
2023-04-18T10:43:07.992Z,894.00
2023-04-18T10:44:08.758Z,925.00
2023-04-18T10:45:08.053Z,925.00
2023-04-18T10:46:14.366Z,924.00
2023-04-18T10:47:09.154Z,924.00
2023-04-18T10:48:08.176Z,929.00
2023-04-18T10:49:08.161Z,936.00
2023-04-18T10:50:08.116Z,958.00
2023-04-18T10:51:08.109Z,963.00
2023-04-18T10:52:08.110Z,966.00
2023-04-18T10:53:08.099Z,970.00
2023-04-18T10:54:08.103Z,987.00
2023-04-18T10:55:08.133Z,1022.00
2023-04-18T10:56:08.279Z,1014.00
2023-04-18T10:57:08.251Z,1013.00
2023-04-18T10:58:08.286Z,1013.00
2023-04-18T10:59:08.356Z,1016.00
2023-04-18T11:00:08.424Z,1028.00
2023-04-18T11:01:08.529Z,1052.00
2023-04-18T11:02:08.593Z,1037.00
2023-04-18T11:03:08.763Z,1036.00
2023-04-18T11:04:08.800Z,1050.00
2023-04-18T11:05:08.821Z,1057.00
2023-04-18T11:06:08.817Z,1083.00
2023-04-18T11:07:08.883Z,1049.00
2023-04-18T11:08:08.930Z,1082.00
2023-04-18T11:09:08.990Z,1086.00
2023-04-18T11:10:09.013Z,1078.00
2023-04-18T11:11:09.069Z,1098.00
2023-04-18T11:12:09.081Z,1107.00
2023-04-18T11:13:09.069Z,1117.00
2023-04-18T11:14:09.097Z,1130.00
2023-04-18T11:15:09.096Z,1121.00
2023-04-18T11:16:09.114Z,1128.00
2023-04-18T11:17:09.146Z,1118.00
2023-04-18T11:18:09.277Z,1143.00
2023-04-18T11:19:09.230Z,1155.00
2023-04-18T11:20:09.346Z,1147.00
2023-04-18T11:21:09.378Z,1158.00
2023-04-18T11:22:09.411Z,1156.00
2023-04-18T11:23:09.450Z,1161.00
2023-04-18T11:24:09.503Z,1161.00
2023-04-18T11:25:09.561Z,1166.00
2023-04-18T11:26:09.621Z,1181.00
2023-04-18T11:27:09.692Z,1185.00
2023-04-18T11:28:09.729Z,1181.00
2023-04-18T11:29:09.793Z,1203.00
2023-04-18T11:30:09.871Z,1189.00
2023-04-18T11:31:09.906Z,1200.00
2023-04-18T11:32:09.954Z,1212.00
2023-04-18T11:33:10.007Z,1202.00
2023-04-18T11:34:09.978Z,1212.00
2023-04-18T11:35:10.016Z,1216.00
2023-04-18T11:36:10.005Z,1209.00
2023-04-18T11:37:10.049Z,1217.00
2023-04-18T11:38:10.006Z,1217.00
2023-04-18T11:39:09.994Z,1211.00
2023-04-18T11:40:09.989Z,1219.00
2023-04-18T11:41:10.037Z,1217.00
2023-04-18T11:42:10.066Z,1221.00
2023-04-18T11:43:10.060Z,1226.00
2023-04-18T11:44:10.085Z,1239.00
2023-04-18T11:45:10.125Z,1246.00
2023-04-18T11:46:10.138Z,1229.00
2023-04-18T11:47:10.132Z,1247.00
2023-04-18T11:48:10.174Z,1231.00
2023-04-18T11:49:10.164Z,1238.00
2023-04-18T11:50:10.164Z,1253.00
2023-04-18T11:51:10.187Z,1253.00
2023-04-18T11:52:10.184Z,1236.00
2023-04-18T11:53:10.287Z,1259.00
2023-04-18T11:54:10.240Z,1256.00
2023-04-18T11:55:10.249Z,1255.00
2023-04-18T11:56:10.233Z,1245.00
2023-04-18T11:57:10.239Z,1255.00
2023-04-18T11:58:10.242Z,1254.00
2023-04-18T11:59:10.261Z,1274.00
2023-04-18T12:00:10.334Z,1253.00
2023-04-18T12:01:10.342Z,1263.00
2023-04-18T12:03:13.299Z,1265.00
2023-04-18T12:04:10.498Z,1267.00
2023-04-18T12:05:10.544Z,1268.00
2023-04-18T12:06:10.449Z,1270.00
2023-04-18T12:07:10.337Z,1269.00
2023-04-18T12:08:10.329Z,1254.00
2023-04-18T12:09:10.324Z,1273.00
2023-04-18T12:10:10.316Z,1267.00
2023-04-18T12:11:10.325Z,1263.00
2023-04-18T12:12:10.319Z,1250.00
2023-04-18T12:13:10.313Z,1267.00
2023-04-18T12:14:10.312Z,1260.00
2023-04-18T12:15:10.314Z,1252.00
2023-04-18T12:16:10.336Z,1264.00
2023-04-18T12:17:10.319Z,1249.00
2023-04-18T12:18:10.314Z,1267.00
2023-04-18T12:19:10.311Z,1236.00
2023-04-18T12:20:10.308Z,1268.00
2023-04-18T12:21:10.318Z,1250.00